Time;durP1;ratioP1;P1;durP2;ratioP2;P2;SDS_P1;SDS_P2;PMS_P1;PMS_P2;Temp;Humidity;BMP_temperature;BMP_pressure;BME280_temperature;BME280_humidity;BME280_pressure;Samples;Min_cycle;Max_cycle;Signal;HPM_P1;HPM_P2
2022/01/01 00:00:06;;;;;;;19.57;10.80;;;;;;;15.60;70.09;101747.03;4906092;28;96923;-50
2022/01/01 00:02:31;;;;;;;14.90;10.43;;;;;;;15.61;70.10;101753.34;4907593;28;97007;-50
2022/01/01 00:04:57;;;;;;;14.70;9.90;;;;;;;15.62;70.10;101752.06;4900455;28;127396;-51
2022/01/01 00:07:23;;;;;;;15.30;9.97;;;;;;;15.62;70.02;101763.19;4900400;28;97045;-50
2022/01/01 00:09:48;;;;;;;17.90;10.33;;;;;;;15.62;69.93;101760.41;4903889;28;97198;-50
2022/01/01 00:12:14;;;;;;;18.03;10.30;;;;;;;15.60;70.06;101765.69;4904325;28;97288;-50
2022/01/01 00:14:39;;;;;;;12.83;9.43;;;;;;;15.58;70.34;101771.75;4906184;28;97188;-50
2022/01/01 00:17:06;;;;;;;17.50;9.80;;;;;;;15.58;70.02;101765.44;4909021;28;96782;-50
2022/01/01 00:19:32;;;;;;;15.47;8.97;;;;;;;15.59;70.02;101762.19;4901146;28;97080;-50
2022/01/01 00:21:59;;;;;;;21.37;11.10;;;;;;;15.58;70.04;101776.53;4924272;28;97601;-50
2022/01/01 00:24:24;;;;;;;16.70;9.90;;;;;;;15.57;70.06;101769.47;4922422;28;97509;-50
2022/01/01 00:26:49;;;;;;;15.03;9.87;;;;;;;15.55;70.05;101772.00;4921345;28;98053;-50
2022/01/01 00:29:15;;;;;;;20.83;10.60;;;;;;;15.56;70.10;101762.41;4918945;28;118319;-50
2022/01/01 00:31:40;;;;;;;16.23;10.53;;;;;;;15.58;70.01;101766.19;4919742;28;98351;-50
2022/01/01 00:34:06;;;;;;;15.00;10.33;;;;;;;15.57;69.92;101770.22;4921279;28;96996;-50
2022/01/01 00:36:31;;;;;;;15.53;10.10;;;;;;;15.55;69.98;101789.38;4922871;28;100280;-51
2022/01/01 00:38:57;;;;;;;18.63;10.70;;;;;;;15.57;70.00;101778.53;4921567;28;97038;-51
2022/01/01 00:41:23;;;;;;;16.80;10.87;;;;;;;15.54;69.98;101776.78;4921737;28;97659;-51
2022/01/01 00:43:48;;;;;;;20.70;10.90;;;;;;;15.57;69.96;101783.34;4918994;28;97421;-50
2022/01/01 00:46:13;;;;;;;16.80;9.43;;;;;;;15.58;69.98;101782.09;4923505;28;97280;-51
2022/01/01 00:48:39;;;;;;;21.20;10.90;;;;;;;15.60;69.91;101782.34;4918661;28;97136;-50
2022/01/01 00:51:04;;;;;;;16.10;9.80;;;;;;;15.64;69.83;101785.63;4919241;28;97184;-50
2022/01/01 00:53:30;;;;;;;15.73;9.70;;;;;;;15.63;69.84;101789.66;4922201;28;126763;-50
2022/01/01 00:55:55;;;;;;;11.30;9.00;;;;;;;15.62;69.77;101794.44;4920781;28;97557;-50
2022/01/01 00:58:21;;;;;;;13.50;8.90;;;;;;;15.62;69.74;101799.25;4921988;28;97170;-50
2022/01/01 01:00:46;;;;;;;11.07;9.10;;;;;;;15.61;69.66;101792.97;4922777;28;96843;-50
2022/01/01 01:03:15;;;;;;;14.97;9.10;;;;;;;15.64;69.77;101799.50;4916140;28;97708;-50
2022/01/01 01:05:42;;;;;;;15.23;9.27;;;;;;;15.61;69.71;101794.97;4921812;28;97332;-50
2022/01/01 01:08:09;;;;;;;13.27;8.80;;;;;;;15.61;69.78;101795.72;4917210;28;97124;-50
2022/01/01 01:10:36;;;;;;;16.47;9.63;;;;;;;15.59;69.83;101792.69;4923930;28;97163;-51
2022/01/01 01:13:01;;;;;;;15.27;9.03;;;;;;;15.61;69.84;101800.50;4923754;28;98865;-50
2022/01/01 01:15:27;;;;;;;19.03;10.10;;;;;;;15.62;69.76;101800.00;4920587;28;99854;-50
2022/01/01 01:17:52;;;;;;;15.33;9.10;;;;;;;15.62;69.67;101797.22;4921438;28;96787;-51
2022/01/01 01:20:19;;;;;;;16.83;9.47;;;;;;;15.64;69.64;101796.72;4918813;28;97046;-52
2022/01/01 01:22:45;;;;;;;20.73;10.27;;;;;;;15.62;69.56;101802.78;4920320;28;98805;-50
2022/01/01 01:25:12;;;;;;;18.67;10.33;;;;;;;15.62;69.55;101800.00;4920495;28;97301;-50
2022/01/01 01:27:38;;;;;;;22.87;10.57;;;;;;;15.64;69.63;101802.28;4921571;28;97082;-50
2022/01/01 01:30:05;;;;;;;12.53;9.07;;;;;;;15.63;69.56;101800.78;4920344;28;97472;-50
2022/01/01 01:32:31;;;;;;;18.40;9.47;;;;;;;15.65;69.61;101801.03;4921493;28;100786;-51
2022/01/01 01:34:56;;;;;;;13.17;9.13;;;;;;;15.64;69.45;101800.25;4921306;28;97315;-50
2022/01/01 01:37:23;;;;;;;15.10;9.80;;;;;;;15.64;69.48;101796.72;4921849;28;99041;-51
2022/01/01 01:39:48;;;;;;;18.47;10.37;;;;;;;15.65;69.49;101789.94;4919821;28;97158;-50
2022/01/01 01:42:14;;;;;;;19.10;9.60;;;;;;;15.65;69.54;101796.25;4917849;28;97015;-50
2022/01/01 01:44:43;;;;;;;15.40;9.37;;;;;;;15.66;69.54;101799.78;4917234;28;97346;-50
2022/01/01 01:47:16;;;;;;;15.30;9.57;;;;;;;15.67;69.52;101804.06;4919761;28;97216;-50
2022/01/01 01:49:46;;;;;;;16.50;9.77;;;;;;;15.68;69.43;101805.59;4918164;28;99608;-50
2022/01/01 01:52:12;;;;;;;21.37;10.87;;;;;;;15.69;69.47;101807.09;4920562;28;101426;-51
2022/01/01 01:54:38;;;;;;;18.60;9.67;;;;;;;15.67;69.56;101807.59;4917715;28;97481;-50
2022/01/01 01:57:04;;;;;;;19.70;11.43;;;;;;;15.65;69.52;101807.34;4920189;28;98182;-50
2022/01/01 01:59:29;;;;;;;15.30;9.60;;;;;;;15.66;69.53;101813.66;4919774;28;96937;-49
2022/01/01 02:01:55;;;;;;;18.07;10.47;;;;;;;15.66;69.47;101814.38;4917726;28;97601;-51
2022/01/01 02:04:20;;;;;;;16.47;9.70;;;;;;;15.68;69.46;101817.41;4913758;28;98681;-50
2022/01/01 02:06:45;;;;;;;16.63;11.20;;;;;;;15.69;69.58;101821.72;4915323;28;118164;-50
2022/01/01 02:09:12;;;;;;;17.33;11.20;;;;;;;15.71;69.44;101821.22;4916959;28;97267;-50
2022/01/01 02:11:38;;;;;;;18.77;10.10;;;;;;;15.71;69.37;101827.53;4916039;28;97711;-51
2022/01/01 02:14:09;;;;;;;15.27;10.07;;;;;;;15.71;69.39;101826.75;4919135;28;97420;-50
2022/01/01 02:19:23;;;;;;;18.63;10.27;;;;;;;15.71;69.36;101833.09;4910484;28;97007;-51
2022/01/01 02:21:51;;;;;;;21.93;10.20;;;;;;;15.74;69.33;101828.56;4920213;28;96933;-50
2022/01/01 02:24:16;;;;;;;16.97;11.47;;;;;;;15.72;69.37;101833.84;4917569;28;98389;-51
2022/01/01 02:26:41;;;;;;;19.27;11.13;;;;;;;15.68;69.33;101830.56;4918008;28;97719;-51
2022/01/01 02:29:06;;;;;;;22.93;10.77;;;;;;;15.65;69.42;101840.63;4919053;28;114859;-50
2022/01/01 02:31:33;;;;;;;18.93;10.67;;;;;;;15.67;69.49;101840.88;4920956;28;120900;-50
2022/01/01 02:34:04;;;;;;;18.67;10.60;;;;;;;15.67;69.42;101843.66;4917919;28;97192;-50
2022/01/01 02:36:32;;;;;;;17.77;10.57;;;;;;;15.69;69.42;101857.03;4916826;28;97121;-50
2022/01/01 02:38:57;;;;;;;18.73;11.27;;;;;;;15.69;69.44;101848.72;4918711;28;97176;-50
2022/01/01 02:41:23;;;;;;;21.93;11.30;;;;;;;15.70;69.52;101850.25;4916237;28;110740;-50
2022/01/01 02:43:48;;;;;;;23.20;11.10;;;;;;;15.70;69.53;101855.78;4921090;28;97224;-51
2022/01/01 02:46:14;;;;;;;16.77;11.17;;;;;;;15.70;69.35;101853.00;4915476;28;107041;-50
2022/01/01 02:48:39;;;;;;;15.77;10.53;;;;;;;15.69;69.40;101845.94;4917120;28;97722;-50
2022/01/01 02:51:05;;;;;;;17.50;10.33;;;;;;;15.68;69.36;101849.97;4914327;28;116541;-50
2022/01/01 02:53:30;;;;;;;17.20;9.90;;;;;;;15.69;69.44;101849.47;4920312;28;99366;-50
2022/01/01 02:55:55;;;;;;;18.63;10.27;;;;;;;15.70;69.46;101855.78;4913016;28;98563;-50
2022/01/01 02:58:21;;;;;;;17.33;10.23;;;;;;;15.70;69.59;101862.06;4918733;28;97156;-50
2022/01/01 03:00:46;;;;;;;19.33;10.37;;;;;;;15.71;69.38;101868.38;4917835;28;120457;-50
2022/01/01 03:03:12;;;;;;;19.37;11.20;;;;;;;15.70;69.37;101862.06;4919579;28;99616;-50
2022/01/01 03:05:37;;;;;;;16.10;9.90;;;;;;;15.72;69.33;101865.13;4918917;28;97170;-51
2022/01/01 03:08:04;;;;;;;16.90;9.90;;;;;;;15.73;69.30;101863.09;4923127;28;96919;-50
2022/01/01 03:10:29;;;;;;;19.97;10.97;;;;;;;15.73;69.29;101855.53;4923219;28;97148;-50
2022/01/01 03:12:54;;;;;;;16.77;10.57;;;;;;;15.76;69.24;101859.34;4922879;28;105707;-50
2022/01/01 03:15:20;;;;;;;19.93;10.40;;;;;;;15.73;69.40;101860.31;4922208;28;96885;-50
2022/01/01 03:17:45;;;;;;;17.40;10.80;;;;;;;15.73;69.21;101858.31;4920812;28;115657;-50
2022/01/01 03:20:10;;;;;;;18.27;11.73;;;;;;;15.73;69.21;101866.63;4920024;28;108224;-50
2022/01/01 03:22:36;;;;;;;18.30;10.80;;;;;;;15.76;69.13;101864.88;4920512;28;97393;-51
2022/01/01 03:25:01;;;;;;;21.87;9.50;;;;;;;15.74;69.24;101867.41;4920324;28;117120;-50
2022/01/01 03:27:27;;;;;;;18.27;10.23;;;;;;;15.74;69.12;101876.50;4916726;28;97360;-50
2022/01/01 03:29:52;;;;;;;17.93;9.73;;;;;;;15.72;69.24;101875.47;4921114;28;96857;-49
2022/01/01 03:32:17;;;;;;;20.63;10.10;;;;;;;15.72;69.20;101884.56;4921120;28;118161;-49
2022/01/01 03:34:43;;;;;;;17.23;10.67;;;;;;;15.73;69.23;101868.66;4923908;28;96916;-50
2022/01/01 03:37:09;;;;;;;23.27;11.40;;;;;;;15.76;69.32;101862.09;4923461;28;97067;-50
2022/01/01 03:39:34;;;;;;;18.80;10.30;;;;;;;15.74;69.19;101859.84;4923571;28;97388;-50
2022/01/01 03:42:00;;;;;;;20.13;11.03;;;;;;;15.74;69.17;101862.63;4922709;28;97586;-50
2022/01/01 03:44:25;;;;;;;17.00;10.30;;;;;;;15.72;69.21;101870.69;4918302;28;96963;-50
2022/01/01 03:46:53;;;;;;;15.63;10.10;;;;;;;15.75;69.09;101863.34;4921812;28;102368;-50
2022/01/01 03:49:18;;;;;;;23.10;10.80;;;;;;;15.76;69.20;101864.88;4920942;28;97609;-50
2022/01/01 03:51:43;;;;;;;20.30;10.47;;;;;;;15.75;69.03;101868.91;4925192;28;101033;-50
2022/01/01 03:54:09;;;;;;;14.57;9.47;;;;;;;15.76;69.16;101867.66;4921339;28;115948;-50
2022/01/01 03:56:37;;;;;;;20.60;11.00;;;;;;;15.76;69.11;101870.44;4916693;28;97153;-50
2022/01/01 03:59:02;;;;;;;19.13;10.87;;;;;;;15.78;69.04;101870.69;4924557;28;98555;-50
2022/01/01 04:01:27;;;;;;;20.93;10.13;;;;;;;15.78;69.04;101870.69;4920124;28;97958;-50
2022/01/01 04:03:54;;;;;;;17.90;11.00;;;;;;;15.77;69.00;101894.91;4918238;28;104817;-50
2022/01/01 04:06:19;;;;;;;15.77;10.60;;;;;;;15.76;69.04;101875.97;4921149;28;97169;-50
2022/01/01 04:08:45;;;;;;;19.67;10.10;;;;;;;15.76;69.04;101875.97;4918688;28;109678;-51
2022/01/01 04:11:11;;;;;;;14.37;10.17;;;;;;;15.75;68.94;101883.53;4922574;28;96981;-50
2022/01/01 04:13:36;;;;;;;20.07;12.60;;;;;;;15.74;68.96;101876.50;4919976;28;100055;-50
2022/01/01 04:16:02;;;;;;;18.83;10.93;;;;;;;15.74;69.01;101884.81;4923139;28;97209;-50
2022/01/01 04:18:37;;;;;;;21.47;11.37;;;;;;;15.75;68.92;101888.31;4919785;28;98158;-50
2022/01/01 04:21:07;;;;;;;19.17;10.77;;;;;;;15.76;68.94;101889.84;4917839;28;98129;-50
2022/01/01 04:23:33;;;;;;;27.93;11.33;;;;;;;15.77;68.98;101890.63;4921531;28;97031;-50
2022/01/01 04:25:58;;;;;;;18.50;11.87;;;;;;;15.77;68.95;101887.84;4918281;28;97351;-50
2022/01/01 04:28:23;;;;;;;20.33;11.40;;;;;;;15.73;68.93;101894.38;4919292;28;97102;-50
2022/01/01 04:30:49;;;;;;;29.17;13.30;;;;;;;15.77;68.95;101889.34;4919693;28;128235;-50
2022/01/01 04:33:14;;;;;;;28.07;13.57;;;;;;;15.77;68.92;101893.41;4916072;28;97165;-50
2022/01/01 04:35:39;;;;;;;24.50;11.50;;;;;;;15.74;69.05;101886.81;4913574;28;117659;-50
2022/01/01 04:38:09;;;;;;;24.60;12.63;;;;;;;15.73;69.04;101897.16;4920323;28;97216;-50
2022/01/01 04:40:34;;;;;;;28.00;13.57;;;;;;;15.74;68.79;101906.25;4914634;28;97715;-50
2022/01/01 04:43:00;;;;;;;25.70;13.17;;;;;;;15.73;68.85;101904.72;4920009;28;96719;-50
2022/01/01 04:45:25;;;;;;;22.03;13.17;;;;;;;15.72;68.94;101909.53;4917338;28;107433;-50
2022/01/01 04:47:50;;;;;;;21.33;13.30;;;;;;;15.72;68.90;101906.00;4932893;22;97362;-51
2022/01/01 04:50:15;;;;;;;32.57;14.97;;;;;;;15.73;68.90;101921.38;4944884;28;115404;-50
2022/01/01 04:52:42;;;;;;;24.63;13.80;;;;;;;15.72;69.01;101912.31;4950795;28;115746;-51
2022/01/01 04:55:08;;;;;;;25.07;14.73;;;;;;;15.77;68.92;101910.78;4949100;28;97632;-50
2022/01/01 04:57:33;;;;;;;30.57;15.30;;;;;;;15.75;68.82;101910.53;4941812;28;97212;-52
2022/01/01 04:59:58;;;;;;;33.50;16.60;;;;;;;15.74;68.81;101909.03;4922793;28;127537;-49
2022/01/01 05:02:26;;;;;;;27.63;15.10;;;;;;;15.77;68.86;101904.50;4926128;28;97328;-52
2022/01/01 05:04:51;;;;;;;30.00;16.30;;;;;;;15.77;68.74;101908.78;4925361;28;97686;-49
2022/01/01 05:07:16;;;;;;;32.63;15.47;;;;;;;15.78;68.70;101912.31;4925178;28;96888;-50
2022/01/01 05:09:41;;;;;;;29.83;14.97;;;;;;;15.78;68.80;101920.66;4926319;28;125347;-51
2022/01/01 05:12:07;;;;;;;29.47;16.37;;;;;;;15.79;68.81;101911.06;4923772;28;117086;-52
2022/01/01 05:14:34;;;;;;;30.27;15.70;;;;;;;15.80;68.72;101917.38;4927016;28;96980;-49
2022/01/01 05:16:59;;;;;;;31.77;16.20;;;;;;;15.80;68.71;101915.34;4919664;28;97777;-50
2022/01/01 05:19:25;;;;;;;26.73;15.73;;;;;;;15.77;68.72;101919.13;4923378;28;97292;-48
2022/01/01 05:21:54;;;;;;;23.27;14.80;;;;;;;15.77;68.72;101926.69;4925014;28;117786;-49
2022/01/01 05:24:21;;;;;;;28.03;15.20;;;;;;;15.76;68.80;101928.72;4924569;28;96761;-51
2022/01/01 05:26:46;;;;;;;26.90;14.70;;;;;;;15.77;68.82;101925.44;4920782;28;101765;-50
2022/01/01 05:29:12;;;;;;;27.63;16.10;;;;;;;15.78;68.80;101917.88;4926405;28;97094;-50
2022/01/01 05:31:39;;;;;;;25.90;15.07;;;;;;;15.79;68.64;101913.09;4929640;28;97235;-49
2022/01/01 05:34:04;;;;;;;29.60;15.40;;;;;;;15.76;68.60;101909.28;4925689;28;97791;-51
2022/01/01 05:36:30;;;;;;;26.57;14.80;;;;;;;15.74;68.73;101909.03;4928527;28;97425;-49
2022/01/01 05:38:56;;;;;;;24.77;15.30;;;;;;;15.76;68.64;101914.84;4928327;28;100205;-50
2022/01/01 05:41:21;;;;;;;24.13;14.30;;;;;;;15.77;68.60;101908.00;4920931;28;118925;-51
2022/01/01 05:43:47;;;;;;;34.13;15.07;;;;;;;15.77;68.59;101911.56;4926775;28;96983;-49
2022/01/01 05:46:12;;;;;;;28.10;15.40;;;;;;;15.78;68.70;101923.41;4921657;28;97594;-51
2022/01/01 05:48:38;;;;;;;33.83;15.60;;;;;;;15.77;68.68;101927.44;4924694;28;97297;-50
2022/01/01 05:51:04;;;;;;;39.70;16.77;;;;;;;15.75;68.61;101925.16;4926502;28;98825;-52
2022/01/01 05:53:29;;;;;;;24.80;14.47;;;;;;;15.76;68.68;101925.94;4927746;28;97111;-49
2022/01/01 05:55:55;;;;;;;25.40;13.70;;;;;;;15.73;68.64;101935.25;4926866;28;97498;-49
2022/01/01 05:58:20;;;;;;;25.87;14.17;;;;;;;15.75;68.64;101939.03;4926258;28;98287;-52
2022/01/01 06:00:45;;;;;;;24.80;14.30;;;;;;;15.74;68.75;101937.53;4923995;28;116027;-52
2022/01/01 06:03:10;;;;;;;26.97;14.90;;;;;;;15.76;68.71;101942.59;4925326;28;96882;-50
2022/01/01 06:05:36;;;;;;;25.13;13.20;;;;;;;15.74;68.60;101945.88;4926017;28;97373;-49
2022/01/01 06:08:02;;;;;;;23.50;14.30;;;;;;;15.72;68.66;101942.06;4930024;28;97331;-49
2022/01/01 06:10:28;;;;;;;22.67;13.73;;;;;;;15.72;68.59;101933.75;4922545;28;97218;-51
2022/01/01 06:12:54;;;;;;;23.90;13.90;;;;;;;15.71;68.66;101940.53;4920684;28;97520;-52
2022/01/01 06:15:20;;;;;;;30.60;14.60;;;;;;;15.73;68.71;101943.56;4924113;28;96773;-49
2022/01/01 06:17:46;;;;;;;29.00;14.10;;;;;;;15.73;68.57;101946.34;4922020;28;98830;-49
2022/01/01 06:20:11;;;;;;;36.20;14.40;;;;;;;15.70;68.63;101956.41;4930206;28;97127;-49
2022/01/01 06:22:37;;;;;;;28.27;14.50;;;;;;;15.71;68.63;101943.31;4921913;28;97263;-49
2022/01/01 06:25:03;;;;;;;20.70;12.30;;;;;;;15.72;68.58;101953.16;4923204;28;97313;-49
2022/01/01 06:27:29;;;;;;;21.77;13.40;;;;;;;15.72;68.69;101961.50;4922742;28;97369;-49
2022/01/01 06:29:54;;;;;;;30.37;13.57;;;;;;;15.74;68.68;101964.53;4922110;28;116406;-49
2022/01/01 06:32:19;;;;;;;22.20;13.17;;;;;;;15.75;68.61;101963.25;4925514;28;96989;-52
2022/01/01 06:34:45;;;;;;;23.10;14.17;;;;;;;15.76;68.65;101964.78;4922816;28;97282;-51
2022/01/01 06:37:10;;;;;;;24.70;13.57;;;;;;;15.76;68.46;101964.78;4928746;28;97532;-50
2022/01/01 06:39:35;;;;;;;29.17;14.07;;;;;;;15.75;68.50;101961.25;4921679;28;117216;-50
2022/01/01 06:42:01;;;;;;;27.63;13.77;;;;;;;15.75;68.49;101966.03;4920754;28;97881;-50
2022/01/01 06:44:26;;;;;;;26.03;14.40;;;;;;;15.77;68.45;101965.56;4930602;28;97184;-51
2022/01/01 06:46:53;;;;;;;34.53;14.50;;;;;;;15.77;68.50;101971.84;4921734;28;98638;-50
2022/01/01 06:49:18;;;;;;;29.40;13.87;;;;;;;15.78;68.48;101973.38;4928061;28;96932;-50
2022/01/01 06:51:43;;;;;;;25.47;13.10;;;;;;;15.78;68.50;101973.38;4923881;28;96955;-50
2022/01/01 06:54:09;;;;;;;29.77;13.13;;;;;;;15.77;68.52;101985.72;4922324;28;125642;-52
2022/01/01 06:56:34;;;;;;;25.93;14.53;;;;;;;15.79;68.53;101979.69;4929321;28;97660;-51
2022/01/01 06:58:59;;;;;;;31.60;13.73;;;;;;;15.81;68.39;101985.50;4921247;28;97102;-50
2022/01/01 07:01:25;;;;;;;32.73;14.70;;;;;;;15.81;68.45;101986.25;4920567;28;104022;-50
2022/01/01 07:03:50;;;;;;;30.23;14.77;;;;;;;15.82;68.44;101993.31;4922639;28;97239;-49
2022/01/01 07:06:15;;;;;;;31.87;14.23;;;;;;;15.82;68.29;101987.00;4922411;28;122723;-50
2022/01/01 07:08:40;;;;;;;28.90;14.60;;;;;;;15.81;68.39;101999.38;4926235;28;96975;-51
2022/01/01 07:11:06;;;;;;;26.13;14.80;;;;;;;15.83;68.24;102000.41;4919735;28;106396;-50
2022/01/01 07:13:31;;;;;;;24.40;15.47;;;;;;;15.82;68.44;102001.66;4924529;28;97002;-50
2022/01/01 07:15:57;;;;;;;29.40;14.77;;;;;;;15.82;68.38;102003.66;4926310;28;98914;-49
2022/01/01 07:18:22;;;;;;;23.57;14.20;;;;;;;15.82;68.29;102006.44;4922338;28;98326;-49
2022/01/01 07:20:47;;;;;;;31.07;15.97;;;;;;;15.83;68.41;102005.94;4923317;28;96851;-51
2022/01/01 07:23:13;;;;;;;27.47;14.70;;;;;;;15.80;68.37;102009.72;4920630;28;98481;-51
2022/01/01 07:25:38;;;;;;;25.60;13.93;;;;;;;15.81;68.26;102010.47;4920921;28;98303;-53
2022/01/01 07:28:03;;;;;;;29.87;15.50;;;;;;;15.83;68.43;102005.19;4921815;28;113246;-50
2022/01/01 07:30:29;;;;;;;32.30;15.60;;;;;;;15.83;68.29;102017.06;4926567;28;97459;-51
2022/01/01 07:32:55;;;;;;;33.90;16.30;;;;;;;15.82;68.26;102012.75;4924692;28;98767;-49
2022/01/01 07:35:21;;;;;;;29.43;16.10;;;;;;;15.83;68.24;102016.28;4922929;28;97132;-52
2022/01/01 07:37:48;;;;;;;28.23;16.40;;;;;;;15.86;68.28;102013.28;4928440;28;96689;-50
2022/01/01 07:40:15;;;;;;;32.30;16.70;;;;;;;15.86;68.10;102018.09;4919017;28;97053;-49
2022/01/01 07:42:41;;;;;;;33.30;15.30;;;;;;;15.86;68.34;102029.19;4900732;28;96932;-49
2022/01/01 07:45:08;;;;;;;39.07;17.60;;;;;;;15.84;68.29;102038.00;4902887;28;96890;-52
2022/01/01 07:47:34;;;;;;;35.10;17.57;;;;;;;15.84;68.34;102038.00;4906454;28;98355;-51
2022/01/01 07:49:59;;;;;;;31.50;15.03;;;;;;;15.85;68.25;102035.97;4904586;28;97413;-51
2022/01/01 07:52:24;;;;;;;30.73;17.00;;;;;;;15.84;68.30;102032.44;4903629;28;127446;-49
2022/01/01 07:54:50;;;;;;;30.23;18.00;;;;;;;15.86;68.27;102043.81;4901152;28;106884;-49
2022/01/01 07:57:15;;;;;;;31.60;15.97;;;;;;;15.86;68.23;102046.56;4906150;28;97249;-49
2022/01/01 07:59:40;;;;;;;29.47;15.80;;;;;;;15.88;68.28;102041.28;4903349;28;116824;-49
2022/01/01 08:02:06;;;;;;;36.30;16.80;;;;;;;15.89;68.23;102044.81;4909171;28;97627;-53
2022/01/01 08:04:31;;;;;;;24.53;16.53;;;;;;;15.89;68.13;102048.38;4907422;28;105170;-49
2022/01/01 08:06:56;;;;;;;30.63;16.93;;;;;;;15.90;68.18;102063.75;4909257;28;114964;-50
2022/01/01 08:09:22;;;;;;;32.53;16.27;;;;;;;15.91;68.10;102062.50;4907808;28;97436;-49
2022/01/01 08:11:47;;;;;;;29.63;16.23;;;;;;;15.94;68.16;102064.31;4905456;28;97722;-49
2022/01/01 08:14:12;;;;;;;28.57;16.03;;;;;;;15.92;68.17;102066.06;4904474;28;126558;-49
2022/01/01 08:16:59;;;;;;;35.23;17.00;;;;;;;15.93;67.91;102060.00;4903802;28;97064;-51
2022/01/01 08:19:26;;;;;;;25.40;15.73;;;;;;;15.93;68.09;102060.00;4902271;28;97871;-52
2022/01/01 08:21:52;;;;;;;35.00;16.50;;;;;;;15.92;67.94;102060.50;4905423;28;98518;-50
2022/01/01 08:24:17;;;;;;;32.07;17.30;;;;;;;15.93;68.10;102059.22;4909422;28;97311;-49
2022/01/01 08:26:42;;;;;;;30.80;16.63;;;;;;;15.91;68.18;102061.75;4903175;28;98314;-50
2022/01/01 08:29:07;;;;;;;32.77;16.47;;;;;;;15.90;68.21;102063.00;4907249;28;115685;-51
2022/01/01 08:31:33;;;;;;;29.23;16.30;;;;;;;15.91;68.16;102058.97;4907915;28;119987;-51
2022/01/01 08:33:58;;;;;;;38.67;17.47;;;;;;;15.90;68.11;102060.25;4900711;28;118006;-49
2022/01/01 08:36:23;;;;;;;26.53;16.27;;;;;;;15.91;68.16;102062.50;4904975;28;119263;-48
2022/01/01 08:38:48;;;;;;;34.13;17.27;;;;;;;15.92;68.29;102066.06;4905316;28;116372;-49
2022/01/01 08:41:14;;;;;;;30.67;17.00;;;;;;;15.91;68.09;102065.28;4904268;28;97346;-48
2022/01/01 08:43:39;;;;;;;34.23;17.27;;;;;;;15.91;68.22;102068.06;4908011;28;96936;-49
2022/01/01 08:46:07;;;;;;;31.47;18.53;;;;;;;15.95;68.15;102067.81;4908809;28;111851;-53
2022/01/01 08:48:32;;;;;;;32.50;17.20;;;;;;;15.93;68.15;102067.56;4906695;28;96925;-49
2022/01/01 08:50:57;;;;;;;33.83;18.03;;;;;;;15.93;68.11;102057.22;4907581;28;98038;-49
2022/01/01 08:53:23;;;;;;;35.20;18.30;;;;;;;15.96;68.10;102067.34;4908728;28;127966;-50
2022/01/01 08:55:48;;;;;;;28.50;16.33;;;;;;;16.00;68.10;102069.88;4904854;28;118956;-50
2022/01/01 08:58:13;;;;;;;26.13;16.60;;;;;;;16.01;67.99;102069.38;4903670;28;97404;-50
2022/01/01 09:00:39;;;;;;;33.80;17.37;;;;;;;16.02;67.98;102072.91;4905657;28;126877;-51
2022/01/01 09:03:04;;;;;;;29.87;17.40;;;;;;;16.01;67.92;102074.19;4901710;28;97627;-51
2022/01/01 09:05:29;;;;;;;33.57;19.00;;;;;;;16.02;67.98;102073.69;4907453;28;96926;-51
2022/01/01 09:07:55;;;;;;;30.90;17.17;;;;;;;16.05;67.95;102083.03;4905724;28;97217;-51
2022/01/01 09:10:20;;;;;;;35.23;17.40;;;;;;;16.05;67.67;102081.03;4904217;28;124383;-51
2022/01/01 09:12:46;;;;;;;32.77;16.87;;;;;;;16.08;67.96;102084.81;4909690;28;97153;-51
2022/01/01 09:15:11;;;;;;;31.80;17.87;;;;;;;16.07;67.88;102089.63;4907351;28;97213;-54
2022/01/01 09:17:36;;;;;;;30.53;18.27;;;;;;;16.10;67.90;102079.53;4905576;28;97275;-50
2022/01/01 09:20:03;;;;;;;37.53;18.33;;;;;;;16.09;67.89;102081.56;4905945;28;98853;-51
2022/01/01 09:22:28;;;;;;;35.50;17.33;;;;;;;16.08;67.61;102093.16;4907282;28;97414;-51
2022/01/01 09:24:53;;;;;;;36.70;18.10;;;;;;;16.08;67.86;102084.81;4906829;28;96894;-51
2022/01/01 09:27:19;;;;;;;29.17;16.27;;;;;;;16.09;67.77;102089.13;4905960;28;97327;-50
2022/01/01 09:29:44;;;;;;;33.77;17.90;;;;;;;16.12;67.84;102099.25;4908476;28;97508;-50
2022/01/01 09:32:10;;;;;;;38.87;16.93;;;;;;;16.16;67.84;102097.00;4904955;28;97012;-50
2022/01/01 09:34:36;;;;;;;25.87;16.10;;;;;;;16.21;67.77;102099.03;4912090;28;97190;-50
2022/01/01 09:37:01;;;;;;;30.30;17.30;;;;;;;16.26;67.65;102101.84;4903710;28;99921;-51
2022/01/01 09:39:27;;;;;;;28.20;17.10;;;;;;;16.25;67.63;102102.34;4904316;28;97515;-50
2022/01/01 09:41:52;;;;;;;28.93;15.97;;;;;;;16.30;67.47;102099.59;4904516;28;97322;-50
2022/01/01 09:44:18;;;;;;;30.37;15.90;;;;;;;16.33;67.56;102101.38;4900656;28;97647;-52
2022/01/01 09:46:46;;;;;;;22.70;15.17;;;;;;;16.36;67.55;102094.06;4906404;28;97114;-53
2022/01/01 09:49:15;;;;;;;23.50;15.40;;;;;;;16.39;67.34;102090.28;4904735;28;98732;-50
2022/01/01 09:51:42;;;;;;;23.87;15.17;;;;;;;16.37;67.48;102088.03;4904561;28;97376;-51
2022/01/01 09:54:08;;;;;;;31.93;17.00;;;;;;;16.41;67.39;102091.31;4923097;28;96806;-52
2022/01/01 09:56:34;;;;;;;37.43;17.47;;;;;;;16.43;67.40;102097.13;4904842;28;97206;-49
2022/01/01 09:58:59;;;;;;;33.67;17.07;;;;;;;16.44;67.33;102098.66;4908326;28;97467;-50
2022/01/01 10:01:25;;;;;;;31.23;16.10;;;;;;;16.46;67.39;102098.94;4902486;28;120632;-49
2022/01/01 10:03:52;;;;;;;26.00;16.23;;;;;;;16.46;67.26;102098.94;4902146;28;97264;-50
2022/01/01 10:06:22;;;;;;;25.23;14.87;;;;;;;16.50;67.33;102104.28;4906801;28;96986;-51
2022/01/01 10:09:09;;;;;;;29.27;15.27;;;;;;;16.52;66.79;102110.09;4922461;28;97094;-51
2022/01/01 10:11:35;;;;;;;28.57;15.33;;;;;;;16.56;67.32;102115.41;4925695;28;102837;-50
2022/01/01 10:14:07;;;;;;;23.10;14.57;;;;;;;16.59;67.18;102122.75;4924574;28;101031;-50
2022/01/01 10:16:37;;;;;;;26.53;15.17;;;;;;;16.60;67.11;102118.72;4923392;28;96844;-51
2022/01/01 10:19:02;;;;;;;23.07;14.17;;;;;;;16.55;67.09;102125.00;4923048;28;100712;-50
2022/01/01 10:21:28;;;;;;;25.47;14.80;;;;;;;16.55;67.17;102125.00;4924375;28;97566;-50
2022/01/01 10:23:56;;;;;;;20.33;13.10;;;;;;;16.59;67.06;102128.31;4922467;28;96999;-51
2022/01/01 10:29:22;;;;;;;24.47;13.10;;;;;;;16.60;66.90;102124.28;4928773;28;101301;-50
2022/01/01 10:32:15;;;;;;;24.77;14.23;;;;;;;16.60;66.58;102129.84;4922384;28;100366;-52
2022/01/01 10:34:46;;;;;;;25.10;13.80;;;;;;;16.63;66.93;102121.25;4915415;28;97242;-50
2022/01/01 10:37:14;;;;;;;21.73;13.10;;;;;;;16.64;67.09;102124.78;4924944;28;96984;-50
2022/01/01 10:39:50;;;;;;;23.20;12.70;;;;;;;16.70;66.74;102117.22;4921973;28;97236;-51
2022/01/01 10:42:16;;;;;;;25.10;13.23;;;;;;;16.73;66.80;102116.97;4922579;28;99843;-51
2022/01/01 10:44:46;;;;;;;17.80;12.47;;;;;;;16.81;66.81;102117.28;4923208;28;96853;-52
2022/01/01 10:47:19;;;;;;;20.37;11.97;;;;;;;16.86;66.75;102120.06;4925136;28;97701;-49
2022/01/01 10:52:28;;;;;;;27.93;12.17;;;;;;;16.85;66.14;102112.25;4938145;28;98558;-49
2022/01/01 10:54:59;;;;;;;20.53;11.80;;;;;;;16.85;66.77;102118.56;4937757;28;98686;-50
2022/01/01 10:57:33;;;;;;;20.03;11.00;;;;;;;16.86;66.45;102113.78;4942253;28;96848;-50
2022/01/01 11:00:21;;;;;;;19.47;11.90;;;;;;;16.87;66.52;102109.72;4937326;28;98166;-49
2022/01/01 11:02:52;;;;;;;23.30;12.00;;;;;;;16.89;66.74;102115.53;4930543;28;100205;-50
2022/01/01 11:05:32;;;;;;;24.63;11.80;;;;;;;16.89;66.28;102105.19;4937849;28;96735;-50
2022/01/01 11:07:59;;;;;;;19.90;10.87;;;;;;;16.87;66.63;102104.16;4956922;28;97588;-50
2022/01/01 11:10:26;;;;;;;17.30;10.80;;;;;;;16.87;66.68;102107.69;4935231;28;97548;-50
2022/01/01 11:12:52;;;;;;;19.83;10.37;;;;;;;16.91;66.65;102096.31;4940414;28;97176;-49